Terminal Aerodrome Forecast
Issued by NWS

Home | Current Version | Previous Version | Text Only | Print | Product List | Glossary On
Versions: 1 2 3 4 5 6 7 8 9 10 11 12 13 14 15 16 17 18 19 20 21 22 23 24
000
FTAK31 PAFA 222339
TAFATA
TAF
PATA 222339Z 2300/2324 10004KT P6SM -SN OVC025
     FM230300 VRB04KT 4SM -SN OVC020
     FM231500 VRB03KT 6SM BR OVC030=

USA.gov is the U.S. government's official web portal to all federal, state and local government web resources and services.